createdAt,value
2023-03-21T00:01:55.754Z,16.66
2023-03-21T00:04:26.052Z,16.66
2023-03-21T00:06:56.316Z,16.66
2023-03-21T00:09:24.722Z,16.66
2023-03-21T00:11:53.129Z,16.67
2023-03-21T00:14:21.515Z,16.67
2023-03-21T00:16:50.860Z,16.68
2023-03-21T00:19:22.300Z,16.68
2023-03-21T00:22:06.432Z,16.69
2023-03-21T00:24:37.030Z,16.71
2023-03-21T00:29:54.685Z,16.72
2023-03-21T00:32:23.744Z,16.75
2023-03-21T00:35:06.752Z,16.78
2023-03-21T00:37:43.167Z,16.80
2023-03-21T00:40:25.477Z,16.82
2023-03-21T00:42:56.235Z,16.85
2023-03-21T00:45:24.826Z,16.89
2023-03-21T00:47:53.368Z,16.94
2023-03-21T00:50:23.481Z,16.96
2023-03-21T00:52:51.978Z,17.00
2023-03-21T00:55:21.468Z,17.01
2023-03-21T00:58:01.139Z,17.05
2023-03-21T01:00:30.562Z,17.07
2023-03-21T01:03:21.264Z,17.10
2023-03-21T01:06:07.064Z,17.11
2023-03-21T01:08:52.256Z,17.15
2023-03-21T01:11:24.802Z,17.18
2023-03-21T01:14:04.265Z,17.23
2023-03-21T01:16:40.277Z,17.26
2023-03-21T01:19:22.268Z,17.29
2023-03-21T01:21:54.734Z,17.32
2023-03-21T01:24:23.213Z,17.33
2023-03-21T01:26:51.671Z,17.36
2023-03-21T01:29:20.298Z,17.39
2023-03-21T01:31:48.953Z,17.42
2023-03-21T01:34:17.411Z,17.43
2023-03-21T01:36:46.100Z,17.43
2023-03-21T01:39:16.025Z,17.44
2023-03-21T01:41:45.361Z,17.46
2023-03-21T01:44:18.009Z,17.45
2023-03-21T01:47:00.069Z,17.46
2023-03-21T01:49:38.768Z,17.45
2023-03-21T01:52:20.969Z,17.45
2023-03-21T01:54:55.964Z,17.46
2023-03-21T01:57:41.047Z,17.45
2023-03-21T02:00:13.227Z,17.46
2023-03-21T02:02:52.622Z,17.47
2023-03-21T02:05:28.877Z,17.46
2023-03-21T02:07:57.908Z,17.51
2023-03-21T02:10:29.430Z,17.51
2023-03-21T02:13:08.180Z,17.53
2023-03-21T02:15:38.869Z,17.54
2023-03-21T02:18:17.517Z,17.54
2023-03-21T02:21:51.579Z,17.51
2023-03-21T02:25:16.254Z,17.50
2023-03-21T02:27:58.609Z,17.49
2023-03-21T02:31:22.808Z,17.46
2023-03-21T02:34:32.496Z,17.45
2023-03-21T02:37:37.576Z,17.46
2023-03-21T02:40:15.527Z,17.45
2023-03-21T02:43:01.399Z,17.45
2023-03-21T02:45:37.233Z,17.46
2023-03-21T02:48:20.265Z,17.43
2023-03-21T02:50:58.086Z,17.38
2023-03-21T02:53:34.831Z,17.33
2023-03-21T02:56:04.438Z,17.29
2023-03-21T02:58:34.650Z,17.24
2023-03-21T03:01:03.164Z,17.19
2023-03-21T03:03:34.853Z,17.14
2023-03-21T03:06:09.013Z,17.08
2023-03-21T03:09:01.873Z,17.02
2023-03-21T03:11:35.835Z,16.93
2023-03-21T03:14:46.791Z,16.84
2023-03-21T03:17:36.060Z,16.80
2023-03-21T03:20:34.177Z,16.70
2023-03-21T03:23:14.937Z,16.65
2023-03-21T03:25:51.198Z,16.58
2023-03-21T03:28:26.343Z,16.54
2023-03-21T03:31:08.063Z,16.49
2023-03-21T03:33:44.121Z,16.46
2023-03-21T03:36:33.484Z,16.43
2023-03-21T03:39:05.834Z,16.39
2023-03-21T03:42:06.005Z,16.34
2023-03-21T03:44:31.260Z,16.32
2023-03-21T03:47:05.409Z,16.27
2023-03-21T03:49:39.523Z,16.31
2023-03-21T03:52:15.903Z,16.29
2023-03-21T03:54:48.273Z,16.29
2023-03-21T03:57:19.389Z,16.28
2023-03-21T03:59:48.499Z,16.26
2023-03-21T04:02:17.422Z,16.24
2023-03-21T04:04:46.048Z,16.22
2023-03-21T04:07:14.848Z,16.18
2023-03-21T04:09:45.057Z,16.15
2023-03-21T04:12:14.201Z,16.09
2023-03-21T04:14:46.042Z,16.05
2023-03-21T04:17:15.814Z,16.00
2023-03-21T04:19:45.463Z,15.95
2023-03-21T04:22:14.719Z,15.90
2023-03-21T04:24:43.600Z,15.84
2023-03-21T04:27:12.237Z,15.77
2023-03-21T04:29:40.890Z,15.72
2023-03-21T04:32:16.491Z,15.67
2023-03-21T04:34:50.266Z,15.62
2023-03-21T04:37:19.429Z,15.58
2023-03-21T04:39:48.177Z,15.52
2023-03-21T04:42:18.625Z,15.49
2023-03-21T04:44:47.286Z,15.45
2023-03-21T04:47:20.340Z,15.41
2023-03-21T04:49:49.299Z,15.36
2023-03-21T04:52:18.362Z,15.33
2023-03-21T04:54:47.023Z,15.31
2023-03-21T04:57:15.965Z,15.27
2023-03-21T04:59:44.419Z,15.25
2023-03-21T05:02:13.269Z,15.22
2023-03-21T05:04:43.375Z,15.18
2023-03-21T05:07:12.501Z,15.18
2023-03-21T05:09:40.962Z,15.17
2023-03-21T05:12:09.387Z,15.18
2023-03-21T05:14:37.812Z,15.17
2023-03-21T05:17:06.307Z,15.20
2023-03-21T05:19:36.303Z,15.23
2023-03-21T05:22:10.200Z,15.27
2023-03-21T05:24:41.905Z,15.32
2023-03-21T05:27:10.610Z,15.39
2023-03-21T05:29:39.043Z,15.43
2023-03-21T05:32:07.645Z,15.48
2023-03-21T05:34:36.045Z,15.54
2023-03-21T05:37:04.423Z,15.60
2023-03-21T05:39:34.238Z,15.62
2023-03-21T05:42:02.666Z,15.67
2023-03-21T05:44:31.125Z,15.71
2023-03-21T05:46:59.665Z,15.75
2023-03-21T05:49:28.117Z,15.80
2023-03-21T05:51:56.578Z,15.86
2023-03-21T05:54:25.044Z,15.93
2023-03-21T05:56:54.840Z,16.02
2023-03-21T05:59:23.292Z,16.14
2023-03-21T06:01:51.732Z,16.26
2023-03-21T06:04:20.282Z,16.40
2023-03-21T06:06:48.664Z,16.54
2023-03-21T06:09:17.104Z,16.65
2023-03-21T06:11:52.844Z,16.72
2023-03-21T06:14:23.420Z,16.79
2023-03-21T06:16:53.891Z,16.82
2023-03-21T06:19:22.617Z,16.83
2023-03-21T06:21:51.309Z,16.84
2023-03-21T06:24:19.904Z,16.84
2023-03-21T06:26:48.456Z,16.83
2023-03-21T06:29:16.950Z,16.82
2023-03-21T06:31:46.822Z,16.83
2023-03-21T06:34:15.456Z,16.83
2023-03-21T06:36:44.778Z,16.84
2023-03-21T06:39:13.511Z,16.87
2023-03-21T06:41:41.978Z,16.89
2023-03-21T06:44:10.515Z,16.93
2023-03-21T06:46:38.985Z,16.97
2023-03-21T06:49:08.814Z,17.01
2023-03-21T06:51:37.532Z,17.07
2023-03-21T06:54:05.985Z,17.09
2023-03-21T06:56:34.442Z,17.10
2023-03-21T06:59:03.654Z,17.14
2023-03-21T07:01:32.252Z,17.22
2023-03-21T07:04:00.702Z,17.29
2023-03-21T07:06:30.517Z,17.37
2023-03-21T07:08:59.286Z,17.44
2023-03-21T07:11:28.128Z,17.51
2023-03-21T07:13:56.627Z,17.59
2023-03-21T07:16:25.511Z,17.67
2023-03-21T07:18:54.642Z,17.74
2023-03-21T07:21:23.155Z,17.80
2023-03-21T07:23:53.593Z,17.88
2023-03-21T07:26:22.828Z,17.98
2023-03-21T07:28:51.226Z,18.05
2023-03-21T07:31:19.768Z,18.13
2023-03-21T07:33:48.270Z,18.21
2023-03-21T07:36:17.414Z,18.29
2023-03-21T07:38:46.668Z,18.41
2023-03-21T07:43:50.139Z,18.64
2023-03-21T07:46:18.658Z,18.72
2023-03-21T07:48:47.145Z,18.77
2023-03-21T07:51:15.586Z,18.83
2023-03-21T07:53:48.485Z,18.87
2023-03-21T07:56:18.261Z,18.91
2023-03-21T07:58:46.717Z,19.01
2023-03-21T08:01:15.440Z,19.11
2023-03-21T08:03:44.285Z,19.20
2023-03-21T08:06:12.831Z,19.27
2023-03-21T08:08:41.349Z,19.36
2023-03-21T08:11:10.375Z,19.49
2023-03-21T08:13:41.185Z,19.56
2023-03-21T08:16:10.781Z,19.59
2023-03-21T08:18:39.256Z,19.62
2023-03-21T08:21:09.699Z,19.69
2023-03-21T08:23:38.228Z,19.74
2023-03-21T08:26:07.712Z,19.80
2023-03-21T08:28:36.716Z,19.93
2023-03-21T08:31:11.349Z,20.13
2023-03-21T08:33:40.556Z,20.34
2023-03-21T08:36:10.661Z,20.48
2023-03-21T08:38:39.690Z,20.63
2023-03-21T08:41:08.788Z,20.81
2023-03-21T08:43:37.237Z,20.98
2023-03-21T08:46:05.959Z,21.17
2023-03-21T08:48:38.805Z,21.33
2023-03-21T08:51:07.701Z,21.43
2023-03-21T08:53:36.369Z,21.51
2023-03-21T08:56:05.056Z,21.60
2023-03-21T08:58:33.547Z,21.71
2023-03-21T09:01:02.073Z,21.78
2023-03-21T09:03:30.591Z,21.78
2023-03-21T09:06:00.898Z,21.69
2023-03-21T09:08:29.358Z,21.67
2023-03-21T09:10:58.551Z,21.68
2023-03-21T09:13:27.068Z,21.69
2023-03-21T09:15:58.269Z,21.66
2023-03-21T09:18:45.379Z,21.63
2023-03-21T09:21:16.242Z,21.56
2023-03-21T09:23:46.264Z,21.58
2023-03-21T09:26:16.264Z,21.57
2023-03-21T09:28:46.270Z,21.54
2023-03-21T09:31:16.666Z,21.49
2023-03-21T09:33:45.250Z,21.45
2023-03-21T09:36:15.527Z,21.36
2023-03-21T09:38:46.073Z,21.27
2023-03-21T09:41:46.724Z,21.08
2023-03-21T09:44:32.995Z,20.89
2023-03-21T09:47:15.349Z,20.79
2023-03-21T09:49:49.183Z,20.74
2023-03-21T09:52:25.679Z,20.77
2023-03-21T09:54:55.799Z,20.88
2023-03-21T09:57:34.939Z,21.00
2023-03-21T10:00:12.344Z,21.09
2023-03-21T10:02:48.077Z,21.15
2023-03-21T10:05:21.825Z,21.20
2023-03-21T10:07:59.733Z,21.18
2023-03-21T10:10:31.448Z,21.19
2023-03-21T10:13:00.090Z,21.24
2023-03-21T10:15:28.964Z,21.28
2023-03-21T10:18:03.361Z,21.35
2023-03-21T10:20:33.936Z,21.47
2023-03-21T10:23:08.185Z,21.60
2023-03-21T10:25:41.784Z,21.71
2023-03-21T10:28:17.591Z,21.81
2023-03-21T10:30:49.528Z,21.90
2023-03-21T10:33:21.686Z,21.99
2023-03-21T10:35:54.501Z,22.04
2023-03-21T10:38:27.557Z,22.06
2023-03-21T10:40:57.109Z,22.07
2023-03-21T10:43:37.936Z,22.03
2023-03-21T10:46:14.731Z,22.18
2023-03-21T10:48:47.134Z,22.36
2023-03-21T10:51:21.908Z,22.50
2023-03-21T10:53:57.179Z,22.78
2023-03-21T10:56:29.500Z,23.01
2023-03-21T10:59:00.462Z,23.17
2023-03-21T11:01:35.337Z,23.18
2023-03-21T11:04:11.313Z,23.40
2023-03-21T11:06:42.445Z,23.70
2023-03-21T11:09:19.737Z,24.25
2023-03-21T11:11:54.501Z,24.79
2023-03-21T11:14:34.378Z,25.39
2023-03-21T11:17:03.149Z,25.86
2023-03-21T11:19:34.537Z,25.98
2023-03-21T11:22:08.896Z,25.79
2023-03-21T11:24:38.816Z,25.64
2023-03-21T11:27:09.529Z,25.53
2023-03-21T11:29:40.624Z,25.30
2023-03-21T11:32:14.797Z,25.07
2023-03-21T11:34:49.744Z,25.06
2023-03-21T11:37:23.407Z,25.33
2023-03-21T11:39:58.256Z,25.96
2023-03-21T11:42:32.841Z,26.58
2023-03-21T11:45:13.969Z,26.86
2023-03-21T11:47:42.640Z,26.81
2023-03-21T11:50:25.636Z,26.48
2023-03-21T11:53:26.718Z,26.34
2023-03-21T11:56:11.734Z,26.53
2023-03-21T11:59:01.676Z,26.95
2023-03-21T12:01:39.007Z,27.72
2023-03-21T12:04:22.420Z,28.46
2023-03-21T12:06:57.462Z,29.07
2023-03-21T12:09:37.992Z,29.29
2023-03-21T12:12:38.807Z,29.42
2023-03-21T12:15:18.903Z,29.66
2023-03-21T12:17:59.813Z,29.88
2023-03-21T12:20:38.943Z,30.03
2023-03-21T12:23:30.955Z,30.61
2023-03-21T12:26:15.075Z,31.41
2023-03-21T12:29:00.510Z,32.17
2023-03-21T12:31:39.824Z,32.57
2023-03-21T12:34:29.315Z,32.56
2023-03-21T12:37:13.998Z,32.67
2023-03-21T12:39:42.855Z,32.82
2023-03-21T12:42:39.285Z,32.67
2023-03-21T12:45:18.393Z,32.18
2023-03-21T12:47:56.223Z,31.70
2023-03-21T12:50:32.926Z,31.48
2023-03-21T12:53:18.747Z,31.12
2023-03-21T12:55:47.525Z,30.73
2023-03-21T12:58:22.752Z,30.73
2023-03-21T13:00:57.445Z,30.97
2023-03-21T13:03:39.937Z,31.31
2023-03-21T13:06:12.783Z,31.30
2023-03-21T13:08:46.342Z,30.95
2023-03-21T13:11:20.641Z,30.55
2023-03-21T13:13:55.092Z,30.15
2023-03-21T13:16:29.777Z,29.57
2023-03-21T13:19:10.568Z,28.94
2023-03-21T13:21:51.973Z,28.30
2023-03-21T13:24:29.409Z,27.80
2023-03-21T13:27:06.737Z,27.41
2023-03-21T13:29:45.992Z,27.05
2023-03-21T13:32:30.849Z,26.78
2023-03-21T13:35:04.011Z,26.53
2023-03-21T13:37:36.911Z,26.27
2023-03-21T13:40:21.000Z,26.00
2023-03-21T13:42:54.649Z,25.75
2023-03-21T13:45:31.942Z,25.58
2023-03-21T13:48:05.386Z,25.48
2023-03-21T13:50:54.790Z,25.30
2023-03-21T13:53:32.663Z,25.25
2023-03-21T13:56:22.289Z,25.25
2023-03-21T13:59:04.933Z,25.31
2023-03-21T14:01:41.507Z,25.43
2023-03-21T14:04:24.770Z,25.56
2023-03-21T14:07:03.201Z,25.86
2023-03-21T14:09:36.757Z,26.09
2023-03-21T14:12:09.627Z,26.28
2023-03-21T14:14:43.079Z,26.59
2023-03-21T14:17:15.464Z,26.56
2023-03-21T14:19:45.405Z,26.46
2023-03-21T14:22:15.837Z,26.29
2023-03-21T14:24:50.876Z,26.02
2023-03-21T14:27:21.433Z,25.75
2023-03-21T14:29:53.400Z,25.50
2023-03-21T14:32:26.961Z,25.25
2023-03-21T14:34:58.943Z,25.03
2023-03-21T14:37:31.157Z,24.83
2023-03-21T14:40:01.729Z,24.62
2023-03-21T14:42:35.143Z,24.47
2023-03-21T14:45:18.893Z,24.38
2023-03-21T14:48:01.056Z,24.35
2023-03-21T14:50:39.926Z,24.31
2023-03-21T14:53:12.850Z,24.34
2023-03-21T14:55:46.361Z,24.28
2023-03-21T14:58:17.647Z,24.27
2023-03-21T15:00:49.638Z,24.26
2023-03-21T15:03:20.203Z,24.29
2023-03-21T15:05:50.529Z,24.27
2023-03-21T15:08:22.040Z,24.26
2023-03-21T15:11:06.982Z,24.23
2023-03-21T15:13:41.446Z,24.19
2023-03-21T15:16:11.429Z,24.18
2023-03-21T15:18:41.276Z,24.20
2023-03-21T15:21:16.591Z,24.19
2023-03-21T15:23:48.065Z,24.13
2023-03-21T15:26:20.604Z,24.04
2023-03-21T15:28:51.650Z,23.97
2023-03-21T15:31:23.263Z,23.91
2023-03-21T15:33:54.656Z,23.87
2023-03-21T15:36:28.419Z,23.82
2023-03-21T15:38:57.308Z,23.82
2023-03-21T15:41:31.225Z,23.78
2023-03-21T15:44:13.475Z,23.76
2023-03-21T15:46:44.974Z,23.75
2023-03-21T15:49:25.381Z,23.73
2023-03-21T15:52:02.548Z,23.76
2023-03-21T15:54:34.244Z,23.77
2023-03-21T15:57:09.505Z,23.77
2023-03-21T15:59:43.559Z,23.76
2023-03-21T16:02:21.279Z,23.74
2023-03-21T16:05:01.677Z,23.73
2023-03-21T16:07:36.126Z,23.72
2023-03-21T16:10:06.260Z,23.69
2023-03-21T16:12:35.348Z,23.64
2023-03-21T16:15:03.849Z,23.61
2023-03-21T16:17:37.865Z,23.59
2023-03-21T16:20:17.943Z,23.56
2023-03-21T16:22:48.182Z,23.56
2023-03-21T16:25:18.133Z,23.51
2023-03-21T16:27:47.626Z,23.46
2023-03-21T16:30:19.927Z,23.41
2023-03-21T16:32:49.953Z,23.39
2023-03-21T16:35:21.099Z,23.37
2023-03-21T16:37:52.169Z,23.33
2023-03-21T16:40:30.009Z,23.26
2023-03-21T16:42:58.497Z,23.22
2023-03-21T16:45:28.849Z,23.16
2023-03-21T16:47:57.747Z,23.11
2023-03-21T16:50:31.771Z,23.03
2023-03-21T16:53:01.916Z,22.97
2023-03-21T16:55:33.070Z,22.90
2023-03-21T16:58:02.406Z,22.84
2023-03-21T17:00:32.077Z,22.76
2023-03-21T17:03:03.968Z,22.69
2023-03-21T17:05:32.775Z,22.61
2023-03-21T17:08:04.629Z,22.51
2023-03-21T17:10:35.629Z,22.40
2023-03-21T17:13:04.097Z,22.29
2023-03-21T17:15:32.526Z,22.18
2023-03-21T17:18:01.188Z,22.08
2023-03-21T17:20:33.653Z,21.96
2023-03-21T17:23:04.402Z,21.83
2023-03-21T17:25:32.861Z,21.72
2023-03-21T17:28:01.546Z,21.58
2023-03-21T17:30:35.563Z,21.45
2023-03-21T17:33:04.947Z,21.34
2023-03-21T17:35:33.808Z,21.22
2023-03-21T17:38:04.542Z,21.10
2023-03-21T17:40:34.594Z,20.97
2023-03-21T17:43:03.737Z,20.87
2023-03-21T17:45:32.630Z,20.76
2023-03-21T17:48:02.090Z,20.66
2023-03-21T17:50:37.026Z,20.56
2023-03-21T17:53:08.581Z,20.48
2023-03-21T17:55:37.875Z,20.39
2023-03-21T17:58:08.026Z,20.31
2023-03-21T18:00:38.585Z,20.23
2023-03-21T18:03:07.564Z,20.16
2023-03-21T18:05:36.453Z,20.10
2023-03-21T18:08:11.282Z,20.03
2023-03-21T18:10:43.042Z,19.97
2023-03-21T18:13:12.521Z,19.90
2023-03-21T18:15:44.703Z,19.85
2023-03-21T18:18:15.739Z,19.79
2023-03-21T18:20:52.029Z,19.74
2023-03-21T18:23:30.043Z,19.67
2023-03-21T18:26:00.322Z,19.60
2023-03-21T18:28:31.017Z,19.56
2023-03-21T18:31:11.434Z,19.49
2023-03-21T18:33:45.714Z,19.44
2023-03-21T18:36:24.788Z,19.38
2023-03-21T18:38:57.146Z,19.30
2023-03-21T18:41:28.313Z,19.24
2023-03-21T18:44:05.393Z,19.20
2023-03-21T18:46:47.615Z,19.13
2023-03-21T18:52:10.052Z,19.08
2023-03-21T18:54:45.495Z,19.04
2023-03-21T18:57:37.863Z,19.00
2023-03-21T19:00:13.903Z,18.96
2023-03-21T19:02:47.874Z,18.91
2023-03-21T19:05:22.008Z,18.87
2023-03-21T19:07:54.298Z,18.83
2023-03-21T19:10:28.812Z,18.77
2023-03-21T19:12:59.212Z,18.74
2023-03-21T19:15:29.894Z,18.67
2023-03-21T19:18:37.296Z,18.62
2023-03-21T19:20:51.098Z,18.56
2023-03-21T19:23:21.968Z,18.53
2023-03-21T19:25:53.821Z,18.46
2023-03-21T19:28:24.591Z,18.44
2023-03-21T19:30:57.251Z,18.40
2023-03-21T19:33:28.016Z,18.35
2023-03-21T19:36:12.940Z,18.32
2023-03-21T19:38:46.523Z,18.27
2023-03-21T19:41:18.561Z,18.21
2023-03-21T19:43:55.240Z,18.17
2023-03-21T19:46:27.496Z,18.13
2023-03-21T19:49:01.254Z,18.08
2023-03-21T19:51:32.767Z,18.03
2023-03-21T19:54:06.783Z,17.98
2023-03-21T19:56:39.129Z,17.96
2023-03-21T19:59:10.650Z,17.94
2023-03-21T20:01:41.277Z,17.95
2023-03-21T20:04:11.858Z,17.96
2023-03-21T20:06:42.132Z,17.96
2023-03-21T20:12:08.976Z,17.93
2023-03-21T20:14:49.088Z,17.90
2023-03-21T20:17:20.821Z,17.89
2023-03-21T20:19:53.915Z,17.88
2023-03-21T20:22:35.998Z,17.88
2023-03-21T20:25:17.144Z,17.90
2023-03-21T20:28:00.093Z,17.96
2023-03-21T20:30:39.389Z,18.02
2023-03-21T20:33:10.179Z,18.09
2023-03-21T20:36:29.424Z,18.14
2023-03-21T20:38:38.331Z,18.21
2023-03-21T20:41:09.556Z,18.28
2023-03-21T20:46:31.783Z,18.42
2023-03-21T20:49:02.088Z,18.48
2023-03-21T20:52:35.977Z,18.56
2023-03-21T20:54:23.555Z,18.62
2023-03-21T20:56:53.689Z,18.67
2023-03-21T20:59:28.208Z,18.71
2023-03-21T21:01:59.464Z,18.76
2023-03-21T21:04:52.958Z,18.80
2023-03-21T21:07:23.018Z,18.82
2023-03-21T21:09:53.238Z,18.85
2023-03-21T21:12:28.401Z,18.86
2023-03-21T21:14:59.447Z,18.80
2023-03-21T21:17:57.951Z,18.76
2023-03-21T21:20:20.814Z,18.70
2023-03-21T21:23:00.055Z,18.66
2023-03-21T21:25:30.821Z,18.62
2023-03-21T21:28:01.666Z,18.61
2023-03-21T21:30:33.735Z,18.59
2023-03-21T21:33:02.326Z,18.59
2023-03-21T21:35:33.589Z,18.57
2023-03-21T21:38:02.134Z,18.55
2023-03-21T21:40:31.171Z,18.53
2023-03-21T21:43:03.517Z,18.54
2023-03-21T21:45:33.586Z,18.53
2023-03-21T21:48:02.198Z,18.57
2023-03-21T21:50:30.716Z,18.59
2023-03-21T21:53:03.946Z,18.61
2023-03-21T21:55:33.373Z,18.63
2023-03-21T21:58:01.971Z,18.65
2023-03-21T22:00:34.204Z,18.66
2023-03-21T22:03:03.037Z,18.68
2023-03-21T22:05:32.004Z,18.68
2023-03-21T22:08:00.442Z,18.68
2023-03-21T22:10:29.440Z,18.68
2023-03-21T22:12:57.887Z,18.67
2023-03-21T22:15:27.108Z,18.66
2023-03-21T22:17:57.112Z,18.66
2023-03-21T22:20:25.673Z,18.67
2023-03-21T22:22:56.701Z,18.64
2023-03-21T22:25:25.559Z,18.64
2023-03-21T22:27:54.316Z,18.64
2023-03-21T22:30:22.911Z,18.63
2023-03-21T22:33:06.181Z,18.64
2023-03-21T22:35:38.533Z,18.62
2023-03-21T22:38:07.060Z,18.62
2023-03-21T22:40:35.529Z,18.61
2023-03-21T22:43:04.013Z,18.62
2023-03-21T22:45:34.886Z,18.62
2023-03-21T22:48:03.588Z,18.63
2023-03-21T22:50:32.080Z,18.62
2023-03-21T22:53:01.910Z,18.62
2023-03-21T22:55:30.546Z,18.63
2023-03-21T22:57:59.082Z,18.62
2023-03-21T23:00:27.690Z,18.60
2023-03-21T23:02:57.251Z,18.60
2023-03-21T23:05:25.741Z,18.59
2023-03-21T23:07:54.625Z,18.59
2023-03-21T23:10:26.353Z,18.59
2023-03-21T23:12:54.789Z,18.62
2023-03-21T23:15:23.421Z,18.66
2023-03-21T23:17:51.818Z,18.70
2023-03-21T23:20:20.506Z,18.70
2023-03-21T23:22:48.966Z,18.70
2023-03-21T23:25:20.587Z,18.71
2023-03-21T23:27:50.672Z,18.70
2023-03-21T23:30:19.227Z,18.69
2023-03-21T23:32:48.228Z,18.69
2023-03-21T23:35:16.907Z,18.69
2023-03-21T23:37:50.012Z,18.70
2023-03-21T23:40:18.790Z,18.71
2023-03-21T23:42:47.250Z,18.70
2023-03-21T23:45:17.387Z,18.72
2023-03-21T23:47:45.922Z,18.73
2023-03-21T23:50:14.483Z,18.73
2023-03-21T23:52:42.927Z,18.72
2023-03-21T23:55:11.721Z,18.72
2023-03-21T23:57:41.917Z,18.72
